Time;durP1;ratioP1;P1;durP2;ratioP2;P2;SDS_P1;SDS_P2;PMS_P1;PMS_P2;Temp;Humidity;BMP_temperature;BMP_pressure;BME280_temperature;BME280_humidity;BME280_pressure;Samples;Min_cycle;Max_cycle;Signal;HPM_P1;HPM_P2
2022/12/02 00:01:12;;;;;;;16.37;11.20;;;;;;;41.34;36.13;100923.44;6249201;22;20696;-71
2022/12/02 00:03:39;;;;;;;18.03;9.23;;;;;;;41.50;35.78;100920.97;6248744;22;20909;-70
2022/12/02 00:06:15;;;;;;;21.83;11.87;;;;;;;41.20;36.52;100904.59;6249108;22;20402;-70
2022/12/02 00:08:41;;;;;;;17.03;10.27;;;;;;;41.67;36.04;100912.66;6276600;22;20357;-70
2022/12/02 00:11:29;;;;;;;27.50;11.60;;;;;;;41.64;35.85;100905.16;6249097;22;20454;-71
2022/12/02 00:14:01;;;;;;;22.93;10.97;;;;;;;41.88;35.54;100909.97;6248982;22;20401;-71
2022/12/02 00:16:27;;;;;;;23.40;11.07;;;;;;;41.57;35.75;100899.44;6249063;22;20392;-70
2022/12/02 00:18:55;;;;;;;15.20;12.07;;;;;;;41.52;35.89;100896.91;6248968;22;20402;-71
2022/12/02 00:21:21;;;;;;;19.47;10.83;;;;;;;41.44;35.97;100892.34;6248976;22;20737;-72
2022/12/02 00:23:47;;;;;;;17.80;11.60;;;;;;;41.82;35.51;100887.59;6248829;22;20429;-71
2022/12/02 00:26:13;;;;;;;24.67;12.47;;;;;;;41.78;35.56;100885.84;6276384;22;20396;-70
2022/12/02 00:28:39;;;;;;;31.80;13.13;;;;;;;41.68;35.43;100878.03;6249001;22;20704;-71
2022/12/02 00:31:05;;;;;;;15.30;9.87;;;;;;;41.63;35.80;100873.63;6276304;22;20749;-70
2022/12/02 00:33:31;;;;;;;21.70;12.97;;;;;;;41.36;36.33;100869.44;6248804;22;20178;-71
2022/12/02 00:35:57;;;;;;;15.47;10.60;;;;;;;41.32;36.11;100849.44;6248743;22;20384;-70
2022/12/02 00:41:45;;;;;;;17.27;10.50;;;;;;;41.03;37.43;100833.94;6276264;22;20181;-73
2022/12/02 00:47:12;;;;;;;21.37;10.50;;;;;;;41.55;36.37;100830.88;6212728;23;20417;-70
2022/12/02 00:49:38;;;;;;;13.40;10.30;;;;;;;41.23;36.92;100814.09;6236298;22;20730;-70
2022/12/02 00:52:04;;;;;;;24.43;13.20;;;;;;;41.04;37.28;100811.03;6248844;22;20178;-72
2022/12/02 00:54:30;;;;;;;23.80;11.40;;;;;;;41.13;37.29;100808.25;6248729;22;20317;-71
2022/12/02 00:56:55;;;;;;;14.97;11.37;;;;;;;41.22;36.91;100809.78;6249066;22;20810;-71
2022/12/02 00:59:21;;;;;;;18.97;11.77;;;;;;;41.34;36.34;100811.84;6248588;22;20838;-69
2022/12/02 01:01:47;;;;;;;26.93;12.00;;;;;;;41.41;35.96;100803.13;6248783;22;20178;-71
2022/12/02 01:04:13;;;;;;;13.23;9.67;;;;;;;41.64;35.74;100812.56;6249348;22;20453;-70
2022/12/02 01:06:39;;;;;;;17.23;10.60;;;;;;;41.72;35.87;100808.97;6248520;22;20377;-70
2022/12/02 01:09:05;;;;;;;19.00;11.10;;;;;;;41.86;35.15;100803.25;6248802;22;20155;-71
2022/12/02 01:11:31;;;;;;;24.67;10.67;;;;;;;41.63;35.75;100802.81;6249071;22;20612;-71
2022/12/02 01:13:57;;;;;;;18.13;10.77;;;;;;;41.76;35.36;100793.56;6248515;22;20377;-70
2022/12/02 01:16:23;;;;;;;14.93;10.93;;;;;;;41.63;35.89;100791.91;6248581;22;20174;-71
2022/12/02 01:18:48;;;;;;;16.77;9.90;;;;;;;41.32;36.13;100782.22;6248547;22;20534;-70
2022/12/02 01:21:14;;;;;;;13.93;10.07;;;;;;;41.49;35.63;100772.31;6248549;22;20202;-70
2022/12/02 01:23:40;;;;;;;17.27;10.17;;;;;;;41.51;35.67;100780.97;6248492;22;20189;-71
2022/12/02 01:26:06;;;;;;;23.47;10.73;;;;;;;41.64;35.28;100773.63;6248436;22;20248;-72
2022/12/02 01:28:32;;;;;;;16.60;10.30;;;;;;;41.51;35.51;100770.06;6248581;22;20174;-73
2022/12/02 01:30:58;;;;;;;20.43;11.70;;;;;;;41.40;35.55;100764.22;6248449;22;20186;-72
2022/12/02 01:33:24;;;;;;;18.30;10.60;;;;;;;41.51;35.49;100765.41;6248519;22;20369;-72
2022/12/02 01:35:50;;;;;;;20.97;13.27;;;;;;;41.27;35.77;100763.34;6248436;22;20202;-70
2022/12/02 01:38:16;;;;;;;24.23;10.40;;;;;;;41.39;35.56;100756.41;6248502;22;20234;-70
2022/12/02 01:40:42;;;;;;;19.33;11.23;;;;;;;41.43;35.26;100757.31;6248347;22;20871;-71
2022/12/02 01:43:09;;;;;;;15.17;11.30;;;;;;;41.28;35.34;100762.19;6248319;22;20475;-70
2022/12/02 01:45:35;;;;;;;21.30;10.70;;;;;;;41.21;35.15;100753.78;6248490;22;20377;-71
2022/12/02 01:48:01;;;;;;;21.80;10.67;;;;;;;41.39;35.08;100751.75;6248343;22;20436;-73
2022/12/02 01:50:28;;;;;;;20.53;11.40;;;;;;;41.55;34.76;100747.25;6248492;22;20378;-73
2022/12/02 01:52:54;;;;;;;25.63;10.80;;;;;;;41.73;34.62;100749.81;6248571;22;20381;-70
2022/12/02 01:55:22;;;;;;;21.03;11.70;;;;;;;41.41;35.37;100748.69;6249776;22;20420;-69
2022/12/02 01:57:49;;;;;;;18.00;11.83;;;;;;;41.23;35.89;100753.44;6277995;22;20396;-70
2022/12/02 02:00:16;;;;;;;17.23;12.43;;;;;;;41.64;35.51;100747.19;6250332;22;20377;-70
2022/12/02 02:02:41;;;;;;;23.13;15.57;;;;;;;41.02;36.71;100737.09;6277744;22;20342;-70
2022/12/02 02:05:13;;;;;;;23.97;10.33;;;;;;;41.49;36.35;100745.09;6250705;22;20369;-70
2022/12/02 02:07:41;;;;;;;17.30;11.77;;;;;;;41.59;35.62;100744.69;6250335;22;20388;-70
2022/12/02 02:10:08;;;;;;;18.13;10.60;;;;;;;41.39;36.48;100745.50;6250390;22;20377;-70
2022/12/02 02:12:35;;;;;;;21.63;10.40;;;;;;;41.44;36.12;100732.50;6250281;22;20450;-70
2022/12/02 02:15:04;;;;;;;23.13;11.57;;;;;;;41.19;36.94;100745.16;6250220;22;20408;-70
2022/12/02 02:17:30;;;;;;;19.83;12.03;;;;;;;41.52;36.33;100741.72;6250314;22;20769;-70
2022/12/02 02:19:56;;;;;;;17.07;12.00;;;;;;;41.25;36.38;100741.09;6277623;22;20396;-71
2022/12/02 02:22:32;;;;;;;24.73;10.90;;;;;;;40.34;37.46;100722.72;6250337;22;20397;-73
2022/12/02 02:24:58;;;;;;;17.00;12.20;;;;;;;41.04;36.35;100743.00;6250055;22;20504;-72
2022/12/02 02:27:24;;;;;;;16.60;10.30;;;;;;;41.20;36.27;100730.41;6250214;22;20405;-70
2022/12/02 02:29:50;;;;;;;16.03;11.37;;;;;;;41.28;35.93;100734.19;6250602;22;20373;-70
2022/12/02 02:32:16;;;;;;;17.40;12.13;;;;;;;41.41;35.69;100729.63;6277099;22;20542;-70
2022/12/02 02:34:42;;;;;;;17.60;12.10;;;;;;;41.23;36.09;100721.56;6277688;22;20350;-70
2022/12/02 02:37:08;;;;;;;18.93;11.27;;;;;;;41.36;35.67;100718.94;6250809;22;20389;-70
2022/12/02 02:39:34;;;;;;;23.23;11.57;;;;;;;41.39;35.56;100723.72;6277729;22;20448;-71
2022/12/02 02:42:00;;;;;;;17.10;10.50;;;;;;;41.37;35.45;100718.59;6250038;22;20393;-71
2022/12/02 02:44:28;;;;;;;14.47;11.03;;;;;;;41.78;35.00;100720.47;6249717;22;20959;-71
2022/12/02 02:46:55;;;;;;;23.03;11.40;;;;;;;41.40;35.93;100722.59;6249962;22;20413;-70
2022/12/02 02:49:21;;;;;;;28.60;14.30;;;;;;;41.86;35.13;100726.97;6224683;22;20382;-71
2022/12/02 02:51:47;;;;;;;20.33;13.20;;;;;;;41.98;35.01;100724.25;6277430;22;20369;-70
2022/12/02 02:54:14;;;;;;;16.47;10.60;;;;;;;41.27;35.85;100717.06;6249895;22;20370;-70
2022/12/02 02:56:40;;;;;;;19.07;10.00;;;;;;;41.18;35.89;100727.19;6249947;22;20401;-70
2022/12/02 02:59:06;;;;;;;15.50;11.23;;;;;;;41.56;34.82;100716.19;6249905;22;20415;-70
2022/12/02 03:01:36;;;;;;;16.30;11.47;;;;;;;41.15;35.49;100725.16;6277266;22;20357;-70
2022/12/02 03:04:13;;;;;;;17.67;10.00;;;;;;;40.40;37.43;100715.97;6249540;22;20451;-71
2022/12/02 03:06:41;;;;;;;17.83;11.60;;;;;;;41.16;36.67;100715.88;6249182;22;20373;-71
2022/12/02 03:09:09;;;;;;;17.00;10.30;;;;;;;41.20;36.51;100716.00;6249941;22;20435;-71
2022/12/02 03:11:37;;;;;;;17.90;11.50;;;;;;;41.54;35.84;100709.47;6249686;22;20482;-70
2022/12/02 03:14:05;;;;;;;18.73;12.77;;;;;;;41.47;36.20;100715.47;6249640;22;20381;-70
2022/12/02 03:16:32;;;;;;;21.23;16.33;;;;;;;41.12;36.71;100714.13;6249752;22;20407;-70
2022/12/02 03:18:59;;;;;;;24.17;18.23;;;;;;;41.20;36.90;100719.53;6249514;22;20373;-71
2022/12/02 03:21:26;;;;;;;29.07;23.10;;;;;;;41.12;36.80;100714.13;6249761;22;20408;-71
2022/12/02 03:23:55;;;;;;;41.07;26.27;;;;;;;40.47;37.84;100719.78;6249592;22;20475;-70
2022/12/02 03:26:21;;;;;;;36.13;24.10;;;;;;;40.94;37.27;100719.69;6249493;22;20381;-71
2022/12/02 03:28:48;;;;;;;31.67;24.50;;;;;;;40.44;38.27;100712.25;6249433;22;20408;-70
2022/12/02 03:31:14;;;;;;;25.00;21.27;;;;;;;40.84;37.60;100705.69;6251319;22;20490;-70
2022/12/02 03:33:42;;;;;;;29.77;21.50;;;;;;;41.14;37.17;100712.69;6275131;22;20369;-71
2022/12/02 03:36:08;;;;;;;38.13;22.20;;;;;;;41.32;36.86;100714.16;6275024;22;20384;-71
2022/12/02 03:38:35;;;;;;;30.37;23.17;;;;;;;40.82;37.23;100703.25;6275016;22;20377;-71
2022/12/02 03:41:03;;;;;;;32.43;18.00;;;;;;;40.93;37.36;100703.72;6274986;22;20751;-70
2022/12/02 03:43:30;;;;;;;26.10;16.93;;;;;;;40.25;38.43;100703.72;6274743;22;20935;-71
2022/12/02 03:45:57;;;;;;;23.77;17.37;;;;;;;40.38;38.22;100710.03;6274974;22;20431;-71
2022/12/02 03:48:24;;;;;;;24.90;16.17;;;;;;;40.86;37.83;100711.56;6274791;22;20373;-70
2022/12/02 03:50:52;;;;;;;20.17;16.70;;;;;;;40.55;37.66;100708.06;6277122;22;20425;-70
2022/12/02 03:53:19;;;;;;;22.60;15.43;;;;;;;40.70;37.88;100709.44;6274870;22;20846;-70
2022/12/02 03:55:45;;;;;;;22.00;16.33;;;;;;;41.02;37.40;100707.19;6274696;22;20459;-72
2022/12/02 03:58:11;;;;;;;21.27;15.70;;;;;;;41.02;37.62;100712.63;6274898;22;20377;-72
2022/12/02 04:00:38;;;;;;;21.97;15.90;;;;;;;40.83;37.68;100720.41;6274620;22;20460;-71
2022/12/02 04:03:04;;;;;;;21.77;15.97;;;;;;;40.51;38.21;100709.03;6274685;22;20418;-72
2022/12/02 04:05:31;;;;;;;29.87;17.97;;;;;;;40.85;37.78;100704.53;6274581;22;20412;-72
2022/12/02 04:07:57;;;;;;;20.27;15.50;;;;;;;40.90;37.87;100712.53;6274594;22;20767;-72
2022/12/02 04:10:23;;;;;;;20.93;15.00;;;;;;;40.91;37.51;100719.56;6274709;22;20457;-72
2022/12/02 04:12:49;;;;;;;20.50;15.47;;;;;;;41.08;37.61;100714.03;6274579;22;20378;-72
2022/12/02 04:15:15;;;;;;;25.33;16.60;;;;;;;40.83;38.11;100704.09;6275278;22;20488;-72
2022/12/02 04:17:41;;;;;;;22.70;13.83;;;;;;;40.65;38.07;100706.91;6274520;22;20922;-72
2022/12/02 04:20:08;;;;;;;19.07;14.77;;;;;;;40.86;37.98;100711.56;6276559;22;20396;-72
2022/12/02 04:22:34;;;;;;;27.83;14.93;;;;;;;40.96;37.88;100709.31;6274657;22;20228;-73
2022/12/02 04:25:01;;;;;;;21.73;14.60;;;;;;;41.15;37.31;100713.47;6276443;22;20769;-73
2022/12/02 04:27:27;;;;;;;26.53;17.43;;;;;;;41.23;37.15;100718.84;6274644;22;20155;-72
2022/12/02 04:29:53;;;;;;;26.67;14.37;;;;;;;41.04;37.42;100723.97;6274543;22;20872;-72
2022/12/02 04:32:20;;;;;;;18.70;14.70;;;;;;;40.93;37.68;100722.75;6274332;22;20433;-73
2022/12/02 04:34:46;;;;;;;28.13;17.90;;;;;;;40.91;37.63;100725.00;6274540;22;20380;-71
2022/12/02 04:37:12;;;;;;;24.37;16.20;;;;;;;41.20;37.22;100729.63;6274703;22;20413;-71
2022/12/02 04:39:38;;;;;;;23.37;14.93;;;;;;;41.04;37.48;100726.69;6274496;22;20382;-71
2022/12/02 04:42:04;;;;;;;25.07;15.27;;;;;;;41.07;37.21;100735.00;6274362;22;20384;-71
2022/12/02 04:44:30;;;;;;;18.83;15.60;;;;;;;40.99;37.37;100729.59;6275034;22;20210;-71
2022/12/02 04:46:55;;;;;;;23.80;15.33;;;;;;;40.97;37.72;100735.38;6274336;22;20377;-71
2022/12/02 04:49:21;;;;;;;28.17;17.20;;;;;;;41.00;37.44;100742.06;6274195;22;20155;-70
2022/12/02 04:51:47;;;;;;;18.30;14.30;;;;;;;41.17;37.26;100736.50;6274857;22;20495;-70
2022/12/02 04:54:13;;;;;;;27.73;16.47;;;;;;;40.98;37.53;100752.50;6274310;22;20182;-71
2022/12/02 04:56:39;;;;;;;24.90;16.17;;;;;;;40.95;37.97;100743.06;6274446;22;20400;-72
2022/12/02 04:59:05;;;;;;;19.67;17.10;;;;;;;41.15;37.36;100736.06;6276277;22;20607;-72
2022/12/02 05:01:31;;;;;;;28.53;17.67;;;;;;;41.12;37.39;100750.31;6274386;22;20726;-71
2022/12/02 05:03:57;;;;;;;29.40;18.17;;;;;;;41.21;37.07;100755.69;6276107;22;20182;-70
2022/12/02 05:06:23;;;;;;;34.27;19.57;;;;;;;41.10;37.17;100751.78;6276272;22;20143;-71
2022/12/02 05:08:49;;;;;;;31.97;19.73;;;;;;;40.90;37.78;100756.03;6274139;22;20377;-71
2022/12/02 05:11:15;;;;;;;28.57;20.97;;;;;;;41.14;37.43;100755.44;6274245;22;20507;-70
2022/12/02 05:13:41;;;;;;;25.73;19.17;;;;;;;40.95;37.79;100753.97;6274623;22;20375;-70
2022/12/02 05:16:06;;;;;;;30.07;18.93;;;;;;;40.50;38.23;100759.09;6274037;22;20200;-70
2022/12/02 05:18:32;;;;;;;28.90;22.90;;;;;;;40.67;38.01;100761.75;6274268;22;20146;-70
2022/12/02 05:20:58;;;;;;;37.53;22.97;;;;;;;40.61;38.43;100754.91;6276068;22;20368;-70
2022/12/02 05:23:24;;;;;;;32.47;21.10;;;;;;;40.77;38.25;100761.38;6273979;22;20222;-70
2022/12/02 05:25:50;;;;;;;28.13;21.17;;;;;;;40.68;37.90;100759.81;6273959;22;20606;-70
2022/12/02 05:28:16;;;;;;;28.13;19.57;;;;;;;40.47;38.53;100757.03;6273985;22;20161;-71
2022/12/02 05:30:42;;;;;;;32.37;21.03;;;;;;;40.62;38.65;100761.13;6277829;22;20522;-70
2022/12/02 05:33:08;;;;;;;30.30;22.83;;;;;;;39.92;39.33;100763.22;6275987;22;20907;-70
2022/12/02 05:35:34;;;;;;;33.77;24.20;;;;;;;40.03;39.26;100764.50;6278111;22;20353;-70
2022/12/02 05:38:00;;;;;;;41.97;26.00;;;;;;;39.90;39.90;100763.56;6278169;22;20660;-70
2022/12/02 05:40:26;;;;;;;34.20;26.70;;;;;;;40.05;39.68;100772.34;6275585;22;20707;-70
2022/12/02 05:42:52;;;;;;;40.93;26.77;;;;;;;39.76;40.08;100773.78;6275626;22;20150;-70
2022/12/02 05:45:20;;;;;;;44.47;25.60;;;;;;;40.09;39.37;100776.81;6276131;22;20162;-72
2022/12/02 05:47:54;;;;;;;39.87;30.33;;;;;;;39.89;39.62;100770.09;6276048;22;20599;-70
2022/12/02 05:50:21;;;;;;;52.60;30.60;;;;;;;40.38;39.02;100781.50;6275931;22;20861;-71
2022/12/02 05:52:50;;;;;;;54.63;29.70;;;;;;;40.08;39.12;100780.63;6275527;22;20401;-71
2022/12/02 05:55:21;;;;;;;38.10;25.87;;;;;;;40.03;39.29;100780.78;6275754;22;20464;-70
2022/12/02 05:57:48;;;;;;;41.40;28.87;;;;;;;40.19;39.28;100781.88;6276100;22;20434;-70
2022/12/02 06:00:19;;;;;;;38.47;27.43;;;;;;;40.33;39.03;100784.44;6274357;22;20468;-71
2022/12/02 06:02:49;;;;;;;39.83;29.50;;;;;;;40.26;39.13;100784.91;6273528;22;20407;-72
2022/12/02 06:05:19;;;;;;;40.10;31.40;;;;;;;39.67;40.09;100784.66;6276028;22;20893;-71
2022/12/02 06:07:48;;;;;;;39.20;32.10;;;;;;;39.74;39.91;100776.84;6275043;22;20362;-74
2022/12/02 06:10:30;;;;;;;72.47;36.23;;;;;;;40.03;39.73;100783.50;6274952;22;20368;-70
2022/12/02 06:13:03;;;;;;;50.00;36.10;;;;;;;40.11;39.34;100784.63;6277793;22;20354;-70
2022/12/02 06:15:36;;;;;;;66.50;42.07;;;;;;;40.29;38.75;100792.41;6275458;22;20369;-70
2022/12/02 06:18:10;;;;;;;47.03;35.90;;;;;;;40.35;38.75;100803.91;6274443;22;20374;-70
2022/12/02 06:20:36;;;;;;;52.67;38.30;;;;;;;40.00;39.40;100801.25;6275245;22;20385;-71
2022/12/02 06:23:02;;;;;;;47.30;34.60;;;;;;;38.86;41.71;100809.53;6277135;22;20360;-73
2022/12/02 06:25:30;;;;;;;43.67;33.10;;;;;;;39.58;40.60;100821.03;6275480;22;20377;-73
2022/12/02 06:28:09;;;;;;;46.83;33.20;;;;;;;40.21;39.28;100816.91;6273734;22;20369;-73
2022/12/02 06:30:35;;;;;;;59.20;33.77;;;;;;;40.71;38.21;100835.34;6273143;22;20377;-74
2022/12/02 06:33:01;;;;;;;55.83;36.27;;;;;;;40.64;38.28;100833.13;6272224;22;20433;-72
2022/12/02 06:35:32;;;;;;;50.83;32.20;;;;;;;40.96;37.93;100839.09;6272235;22;20393;-72
2022/12/02 06:38:01;;;;;;;49.37;36.63;;;;;;;40.94;37.61;100849.47;6271980;22;20394;-71
2022/12/02 06:40:33;;;;;;;48.27;35.43;;;;;;;40.77;37.84;100847.63;6271930;22;20490;-72
2022/12/02 06:43:01;;;;;;;53.07;33.30;;;;;;;40.92;38.01;100846.31;6275237;22;20392;-71
2022/12/02 06:45:31;;;;;;;56.20;36.77;;;;;;;41.00;37.74;100854.41;6274097;22;20400;-73
2022/12/02 06:48:01;;;;;;;59.50;37.90;;;;;;;41.03;37.94;100861.13;6248758;22;20391;-72
2022/12/02 06:50:32;;;;;;;53.60;34.13;;;;;;;41.06;37.18;100861.25;6274033;22;20881;-72
2022/12/02 06:53:06;;;;;;;54.90;36.80;;;;;;;41.01;37.82;100860.69;6276000;22;20436;-72
2022/12/02 06:55:35;;;;;;;53.17;38.50;;;;;;;41.11;37.40;100862.22;6274052;22;20938;-72
2022/12/02 06:58:13;;;;;;;63.97;35.00;;;;;;;41.22;37.58;100871.59;6273838;22;20388;-73
2022/12/02 07:00:40;;;;;;;67.53;36.50;;;;;;;41.36;37.41;100865.94;6273803;22;20461;-72
2022/12/02 07:03:33;;;;;;;58.17;38.13;;;;;;;41.33;37.00;100879.09;6275871;22;20924;-81
2022/12/02 07:06:21;;;;;;;55.43;37.47;;;;;;;41.40;37.09;100883.22;6256689;22;20439;-73
2022/12/02 07:08:47;;;;;;;61.93;37.53;;;;;;;41.57;36.50;100885.81;6273842;22;20381;-73
2022/12/02 07:11:53;;;;;;;40.27;33.47;;;;;;;41.41;37.10;100892.97;6275720;22;20488;-72
2022/12/02 07:14:40;;;;;;;55.70;33.97;;;;;;;41.71;36.66;100894.53;6152192;23;20854;-71
2022/12/02 07:17:21;;;;;;;49.27;33.47;;;;;;;41.61;36.48;100894.91;6127037;23;20419;-73
2022/12/02 07:19:54;;;;;;;53.60;34.83;;;;;;;41.72;36.58;100900.78;6231931;22;20865;-72
2022/12/02 07:22:23;;;;;;;59.93;35.13;;;;;;;41.76;36.48;100910.72;6276534;22;20362;-73
2022/12/02 07:24:57;;;;;;;45.47;31.40;;;;;;;41.71;36.67;100915.53;6275039;22;20429;-74
2022/12/02 07:27:30;;;;;;;42.30;32.63;;;;;;;41.32;37.15;100906.63;6276874;22;20354;-73
2022/12/02 07:29:56;;;;;;;47.63;35.13;;;;;;;41.30;37.32;100911.56;6275212;22;20390;-73
2022/12/02 07:32:23;;;;;;;44.13;29.20;;;;;;;41.41;37.28;100915.56;6274603;22;20554;-76
2022/12/02 07:34:49;;;;;;;41.00;29.23;;;;;;;41.43;36.99;100912.50;6276629;22;20425;-74
2022/12/02 07:37:15;;;;;;;46.37;34.00;;;;;;;41.63;36.92;100916.38;6273948;22;20393;-74
2022/12/02 07:39:41;;;;;;;42.77;30.20;;;;;;;41.26;37.95;100916.88;6274514;22;20763;-74
2022/12/02 07:42:07;;;;;;;41.53;27.67;;;;;;;41.32;37.35;100909.34;6274504;22;20906;-72
2022/12/02 07:44:33;;;;;;;42.80;30.50;;;;;;;41.38;37.60;100913.50;6274619;22;20429;-73
2022/12/02 07:46:59;;;;;;;42.40;28.60;;;;;;;41.16;37.97;100917.25;6274555;22;20377;-74
2022/12/02 07:49:24;;;;;;;48.07;29.57;;;;;;;41.25;37.79;100917.19;6276394;22;20411;-74
2022/12/02 07:51:51;;;;;;;46.60;28.50;;;;;;;41.31;37.59;100922.16;6274794;22;20390;-73
2022/12/02 07:54:17;;;;;;;46.37;25.73;;;;;;;41.39;37.51;100936.06;6274996;22;20381;-73
2022/12/02 07:56:43;;;;;;;44.57;26.80;;;;;;;41.60;37.24;100932.25;6274625;22;20409;-73
2022/12/02 07:59:09;;;;;;;35.57;22.23;;;;;;;41.32;37.19;100940.09;6274865;22;20384;-72
2022/12/02 08:01:35;;;;;;;44.73;25.17;;;;;;;41.19;37.96;100934.84;6274679;22;20409;-72
2022/12/02 08:04:01;;;;;;;35.13;21.93;;;;;;;41.75;36.94;100941.81;6274360;22;20425;-75
2022/12/02 08:06:27;;;;;;;40.90;24.17;;;;;;;41.62;37.08;100929.22;6274580;22;20389;-74
2022/12/02 08:08:53;;;;;;;36.30;23.97;;;;;;;41.65;37.26;100933.19;6274657;22;20448;-74
2022/12/02 08:11:19;;;;;;;25.93;20.70;;;;;;;41.84;36.73;100928.91;6274702;22;20397;-73
2022/12/02 08:13:45;;;;;;;32.53;22.53;;;;;;;42.02;36.42;100942.41;6274581;22;20401;-74
2022/12/02 08:16:11;;;;;;;31.20;20.57;;;;;;;41.90;36.33;100940.41;6276524;22;20372;-73
2022/12/02 08:18:37;;;;;;;46.43;21.90;;;;;;;42.18;36.23;100940.72;6249204;22;20515;-74
2022/12/02 08:21:03;;;;;;;34.07;22.33;;;;;;;42.14;36.77;100937.00;6274551;22;20382;-74
2022/12/02 08:23:29;;;;;;;31.23;25.30;;;;;;;41.75;37.02;100933.63;6276160;22;20413;-72
2022/12/02 08:25:55;;;;;;;40.50;25.13;;;;;;;41.80;36.87;100924.44;6274567;22;20890;-73
2022/12/02 08:28:21;;;;;;;48.83;23.30;;;;;;;42.27;35.89;100935.16;6274489;22;20159;-73
2022/12/02 08:30:47;;;;;;;39.27;26.87;;;;;;;42.44;36.17;100926.81;6274374;22;20900;-73
2022/12/02 08:33:13;;;;;;;34.67;24.80;;;;;;;41.50;37.50;100927.19;6248906;22;20401;-73
2022/12/02 08:35:39;;;;;;;35.03;22.60;;;;;;;42.00;36.73;100929.13;6248922;22;20435;-72
2022/12/02 08:38:08;;;;;;;32.17;24.17;;;;;;;41.82;37.33;100923.00;6248997;22;20854;-72
2022/12/02 08:40:34;;;;;;;40.87;27.80;;;;;;;41.59;37.33;100924.41;6248641;22;20446;-72
2022/12/02 08:43:01;;;;;;;14.90;12.10;;;;;;;41.60;36.26;100923.28;6248758;22;20874;-73
2022/12/02 08:45:28;;;;;;;16.50;10.80;;;;;;;41.98;35.82;100925.13;6248406;22;20440;-73
2022/12/02 08:47:54;;;;;;;20.60;10.90;;;;;;;42.05;35.85;100931.66;6248927;22;20385;-72
2022/12/02 08:50:20;;;;;;;20.97;11.63;;;;;;;41.84;36.15;100920.72;6248623;22;20406;-73
2022/12/02 08:52:46;;;;;;;15.37;10.80;;;;;;;42.01;35.79;100919.81;6248713;22;20939;-73
2022/12/02 08:55:12;;;;;;;20.13;12.13;;;;;;;42.11;35.22;100924.03;6248715;22;20420;-73
2022/12/02 08:57:38;;;;;;;27.53;13.00;;;;;;;42.23;35.10;100932.28;6276490;22;20369;-73
2022/12/02 09:00:06;;;;;;;17.77;13.30;;;;;;;41.85;35.77;100930.50;6249458;22;20381;-73
2022/12/02 09:02:33;;;;;;;20.40;12.20;;;;;;;42.26;35.07;100931.66;6248890;22;20480;-73
2022/12/02 09:04:58;;;;;;;15.80;10.40;;;;;;;42.32;35.09;100929.50;6247979;22;20425;-73
2022/12/02 09:07:24;;;;;;;20.83;12.07;;;;;;;42.65;34.60;100926.78;6249045;22;20389;-73
2022/12/02 09:09:50;;;;;;;20.50;12.90;;;;;;;42.44;34.78;100915.91;6248732;22;20488;-73
2022/12/02 09:12:16;;;;;;;16.80;11.83;;;;;;;42.50;35.01;100913.78;6248629;22;20388;-73
2022/12/02 09:14:42;;;;;;;25.80;13.97;;;;;;;42.18;35.30;100910.72;6249084;22;20905;-73
2022/12/02 09:17:08;;;;;;;26.23;14.47;;;;;;;42.43;35.02;100913.53;6248611;22;20420;-73
2022/12/02 09:19:35;;;;;;;28.97;14.17;;;;;;;41.87;35.99;100911.13;6248713;22;20419;-74
2022/12/02 09:22:01;;;;;;;21.07;12.23;;;;;;;41.87;35.92;100908.41;6248875;22;20416;-75
2022/12/02 09:24:26;;;;;;;20.77;11.23;;;;;;;41.93;36.20;100906.25;6248471;22;20425;-73
2022/12/02 09:26:52;;;;;;;19.87;12.17;;;;;;;41.90;35.91;100906.91;6248989;22;20393;-73
2022/12/02 09:29:18;;;;;;;16.47;11.50;;;;;;;42.24;35.56;100903.13;6248553;22;20468;-73
2022/12/02 09:31:44;;;;;;;23.37;13.13;;;;;;;41.68;36.21;100900.66;6256014;22;20447;-73
2022/12/02 09:34:10;;;;;;;22.63;12.97;;;;;;;41.80;36.45;100908.09;6274591;22;20721;-73
2022/12/02 09:36:36;;;;;;;21.13;13.70;;;;;;;42.16;35.55;100904.78;6274020;22;20384;-74
2022/12/02 09:39:02;;;;;;;18.60;13.03;;;;;;;42.08;35.67;100902.91;6274149;22;20439;-74
2022/12/02 09:41:28;;;;;;;18.23;13.07;;;;;;;42.05;35.92;100898.94;6273993;22;20382;-73
2022/12/02 09:43:55;;;;;;;22.33;13.90;;;;;;;41.91;35.52;100892.16;6274015;22;20421;-73
2022/12/02 09:46:21;;;;;;;26.13;17.10;;;;;;;42.31;35.21;100896.00;6274105;22;20455;-73
2022/12/02 09:48:47;;;;;;;31.07;14.50;;;;;;;41.82;36.13;100901.22;6273895;22;20377;-72
2022/12/02 09:51:13;;;;;;;24.80;12.33;;;;;;;42.22;35.52;100902.66;6274008;22;20480;-73
2022/12/02 09:53:41;;;;;;;20.83;13.30;;;;;;;42.51;35.17;100904.44;6273971;22;20464;-73
2022/12/02 09:56:16;;;;;;;18.13;12.47;;;;;;;42.68;34.96;100898.06;6274026;22;20401;-73
2022/12/02 09:58:44;;;;;;;20.77;10.50;;;;;;;42.97;34.22;100897.84;6274038;22;20854;-72
2022/12/02 10:01:11;;;;;;;18.80;12.60;;;;;;;42.74;34.62;100886.56;6273994;22;20406;-72
2022/12/02 10:03:39;;;;;;;16.93;12.40;;;;;;;42.51;34.91;100890.81;6276033;22;20877;-72
2022/12/02 10:06:22;;;;;;;24.57;12.17;;;;;;;42.31;35.29;100890.53;6273425;22;20749;-74
2022/12/02 10:08:48;;;;;;;20.83;11.43;;;;;;;42.62;34.62;100892.81;6273868;22;20406;-74
2022/12/02 10:11:29;;;;;;;19.00;13.43;;;;;;;42.69;34.67;100883.28;6273772;22;20737;-74
2022/12/02 10:13:56;;;;;;;16.63;13.90;;;;;;;42.40;34.71;100879.53;6273935;22;20381;-72
2022/12/02 10:16:22;;;;;;;31.03;12.60;;;;;;;42.32;35.10;100878.50;6277275;22;20362;-74
2022/12/02 10:18:48;;;;;;;24.43;12.23;;;;;;;42.38;35.27;100874.44;6277725;22;20472;-74
2022/12/02 10:21:14;;;;;;;23.93;12.20;;;;;;;42.80;34.71;100882.50;6275615;22;20464;-74
2022/12/02 10:24:11;;;;;;;21.00;13.50;;;;;;;42.73;34.78;100876.81;6275745;22;20428;-74
2022/12/02 10:26:51;;;;;;;20.80;11.73;;;;;;;42.54;34.64;100877.31;6245611;22;20474;-74
2022/12/02 10:29:24;;;;;;;23.43;11.67;;;;;;;42.29;35.34;100868.25;6277497;22;20396;-73
2022/12/02 10:31:58;;;;;;;19.37;12.30;;;;;;;42.79;35.10;100861.81;6275407;22;20516;-73
2022/12/02 10:34:25;;;;;;;21.00;13.50;;;;;;;43.01;34.64;100868.75;6275661;22;20377;-73
2022/12/02 10:36:52;;;;;;;21.77;12.00;;;;;;;42.82;34.87;100843.94;6275689;22;20386;-73
2022/12/02 10:39:21;;;;;;;16.17;11.63;;;;;;;43.19;34.33;100845.53;6275645;22;20434;-72
2022/12/02 10:42:18;;;;;;;28.07;12.47;;;;;;;43.12;34.15;100845.31;6275610;22;20459;-74
2022/12/02 10:44:45;;;;;;;18.13;11.00;;;;;;;43.13;34.34;100846.13;6264781;22;20429;-74
2022/12/02 10:47:14;;;;;;;21.50;11.20;;;;;;;43.31;33.74;100841.19;6275599;22;20381;-74
2022/12/02 10:49:59;;;;;;;20.17;12.40;;;;;;;42.86;34.63;100837.47;6275443;22;20385;-72
2022/12/02 10:52:34;;;;;;;20.00;11.63;;;;;;;42.50;34.91;100832.75;6275413;22;20776;-72
2022/12/02 10:55:01;;;;;;;25.00;13.83;;;;;;;42.69;34.88;100824.06;6275344;22;20382;-71
2022/12/02 10:57:30;;;;;;;16.43;11.73;;;;;;;42.97;34.28;100835.09;6275788;22;20467;-72
2022/12/02 11:00:00;;;;;;;17.30;10.10;;;;;;;42.77;34.36;100814.94;6275367;22;20435;-71
2022/12/02 11:02:37;;;;;;;16.03;12.00;;;;;;;43.08;34.19;100824.50;6275388;22;20446;-74
2022/12/02 11:05:21;;;;;;;17.30;13.23;;;;;;;42.96;34.27;100829.94;6277177;22;20520;-73
2022/12/02 11:08:01;;;;;;;25.70;14.00;;;;;;;43.13;34.00;100827.81;6275433;22;20427;-72
2022/12/02 11:10:39;;;;;;;17.67;12.40;;;;;;;43.05;34.33;100822.47;6275272;22;20381;-72
2022/12/02 11:13:12;;;;;;;21.27;13.43;;;;;;;43.09;34.89;100818.69;6275161;22;20392;-72
2022/12/02 11:15:44;;;;;;;18.87;13.07;;;;;;;42.96;34.12;100827.22;6275365;22;20476;-72
2022/12/02 11:18:11;;;;;;;17.43;14.00;;;;;;;42.62;34.99;100818.38;6275046;22;20406;-71
2022/12/02 11:20:45;;;;;;;23.53;12.20;;;;;;;42.59;34.96;100821.75;6275274;22;20404;-71